KROX/ROX METAR and TAF weather

Enter ICAO airport designator
Station Type Date Time Source
KROX METAR 2022/06/26 08:55 UTC NOAA

KROX 260855Z AUTO 29021G29KT 10SM 12/08 A2990 RMK AO2


Station Type Date Time Source
KROX Decoded METAR 2022/06/26 08:55 UTC NOAA

Roseau, Roseau Municipal Airport/Rudy Billberg Field, MN, United States (KROX) 48-51N 095-42W
Jun 26, 2022 - 04:55 AM EDT / 2022.06.26 0855 UTC
Wind: from the WNW (290 degrees) at 24 MPH (21 KT) gusting to 33 MPH (29 KT):0
Visibility: 10 mile(s):0
Temperature: 53 F (12 C)
Dew Point: 46 F (8 C)
Relative Humidity: 76%
Pressure (altimeter): 29.9 in. Hg (1012 hPa)
ob: KROX 260855Z AUTO 29021G29KT 10SM 12/08 A2990 RMK AO2
cycle: 9

Station Type Date Time Source
KROX TAF UTC NOAA

Error!

Example: see airport list